sensor_id;sensor_type;location;lat;lon;timestamp;temperature;humidity
1978;DHT22;989;53.016;8.346;2022-08-19T00:00:36;13.70;99.90
1978;DHT22;989;53.016;8.346;2022-08-19T00:03:05;13.70;99.90
1978;DHT22;989;53.016;8.346;2022-08-19T00:05:32;13.50;99.90
1978;DHT22;989;53.016;8.346;2022-08-19T00:07:59;13.40;99.90
1978;DHT22;989;53.016;8.346;2022-08-19T00:10:25;13.40;99.90
1978;DHT22;989;53.016;8.346;2022-08-19T00:12:51;13.40;99.90
1978;DHT22;989;53.016;8.346;2022-08-19T00:15:19;13.30;99.90
1978;DHT22;989;53.016;8.346;2022-08-19T00:17:47;13.30;99.90
1978;DHT22;989;53.016;8.346;2022-08-19T00:20:15;13.20;99.90
1978;DHT22;989;53.016;8.346;2022-08-19T00:22:44;13.10;99.90
1978;DHT22;989;53.016;8.346;2022-08-19T00:25:11;12.90;99.90
1978;DHT22;989;53.016;8.346;2022-08-19T00:27:37;12.80;99.90
1978;DHT22;989;53.016;8.346;2022-08-19T00:30:05;12.70;99.90
1978;DHT22;989;53.016;8.346;2022-08-19T00:32:31;12.80;99.90
1978;DHT22;989;53.016;8.346;2022-08-19T00:35:00;12.90;99.90
1978;DHT22;989;53.016;8.346;2022-08-19T00:37:27;13.00;99.90
1978;DHT22;989;53.016;8.346;2022-08-19T00:39:52;13.00;99.90
1978;DHT22;989;53.016;8.346;2022-08-19T00:42:20;13.00;99.90
1978;DHT22;989;53.016;8.346;2022-08-19T00:44:47;12.90;99.90
1978;DHT22;989;53.016;8.346;2022-08-19T00:47:13;12.90;99.90
1978;DHT22;989;53.016;8.346;2022-08-19T00:49:53;12.80;99.90
1978;DHT22;989;53.016;8.346;2022-08-19T00:52:32;12.80;99.90
1978;DHT22;989;53.016;8.346;2022-08-19T00:55:00;12.80;99.90
1978;DHT22;989;53.016;8.346;2022-08-19T00:57:32;12.80;99.90
1978;DHT22;989;53.016;8.346;2022-08-19T01:00:03;12.90;99.90
1978;DHT22;989;53.016;8.346;2022-08-19T01:02:32;13.10;99.90
1978;DHT22;989;53.016;8.346;2022-08-19T01:05:00;13.10;99.90
1978;DHT22;989;53.016;8.346;2022-08-19T01:07:27;13.20;99.90
1978;DHT22;989;53.016;8.346;2022-08-19T01:09:53;13.20;99.90
1978;DHT22;989;53.016;8.346;2022-08-19T01:12:19;13.00;99.90
1978;DHT22;989;53.016;8.346;2022-08-19T01:14:45;13.00;99.90
1978;DHT22;989;53.016;8.346;2022-08-19T01:17:12;12.90;99.90
1978;DHT22;989;53.016;8.346;2022-08-19T01:19:40;12.90;99.90
1978;DHT22;989;53.016;8.346;2022-08-19T01:24:48;12.90;99.90
1978;DHT22;989;53.016;8.346;2022-08-19T01:27:14;13.00;99.90
1978;DHT22;989;53.016;8.346;2022-08-19T01:29:41;13.20;99.90
1978;DHT22;989;53.016;8.346;2022-08-19T01:32:12;13.20;99.90
1978;DHT22;989;53.016;8.346;2022-08-19T01:34:40;13.20;99.90
1978;DHT22;989;53.016;8.346;2022-08-19T01:37:10;13.10;99.90
1978;DHT22;989;53.016;8.346;2022-08-19T01:39:38;13.10;99.90
1978;DHT22;989;53.016;8.346;2022-08-19T01:42:07;13.10;99.90
1978;DHT22;989;53.016;8.346;2022-08-19T01:44:37;13.10;99.90
1978;DHT22;989;53.016;8.346;2022-08-19T01:47:06;13.00;99.90
1978;DHT22;989;53.016;8.346;2022-08-19T01:49:32;13.10;99.90
1978;DHT22;989;53.016;8.346;2022-08-19T01:51:59;13.10;99.90
1978;DHT22;989;53.016;8.346;2022-08-19T01:54:26;13.10;99.90
1978;DHT22;989;53.016;8.346;2022-08-19T01:56:53;13.10;99.90
1978;DHT22;989;53.016;8.346;2022-08-19T01:59:24;13.10;99.90
1978;DHT22;989;53.016;8.346;2022-08-19T02:01:49;13.10;99.90
1978;DHT22;989;53.016;8.346;2022-08-19T02:04:15;13.10;99.90
1978;DHT22;989;53.016;8.346;2022-08-19T02:06:41;13.00;99.90
1978;DHT22;989;53.016;8.346;2022-08-19T02:09:07;12.90;99.90
1978;DHT22;989;53.016;8.346;2022-08-19T02:11:36;12.90;99.90
1978;DHT22;989;53.016;8.346;2022-08-19T02:14:05;12.90;99.90
1978;DHT22;989;53.016;8.346;2022-08-19T02:16:32;12.90;99.90
1978;DHT22;989;53.016;8.346;2022-08-19T02:18:58;12.90;99.90
1978;DHT22;989;53.016;8.346;2022-08-19T02:21:27;13.00;99.90
1978;DHT22;989;53.016;8.346;2022-08-19T02:23:54;13.10;99.90
1978;DHT22;989;53.016;8.346;2022-08-19T02:26:20;13.00;99.90
1978;DHT22;989;53.016;8.346;2022-08-19T02:28:47;13.00;99.90
1978;DHT22;989;53.016;8.346;2022-08-19T02:31:16;13.00;99.90
1978;DHT22;989;53.016;8.346;2022-08-19T02:33:45;13.00;99.90
1978;DHT22;989;53.016;8.346;2022-08-19T02:36:12;13.00;99.90
1978;DHT22;989;53.016;8.346;2022-08-19T02:38:39;13.10;99.90
1978;DHT22;989;53.016;8.346;2022-08-19T02:41:08;13.10;99.90
1978;DHT22;989;53.016;8.346;2022-08-19T02:43:38;13.10;99.90
1978;DHT22;989;53.016;8.346;2022-08-19T02:46:32;13.10;99.90
1978;DHT22;989;53.016;8.346;2022-08-19T02:49:02;13.20;99.90
1978;DHT22;989;53.016;8.346;2022-08-19T02:51:39;13.20;99.90
1978;DHT22;989;53.016;8.346;2022-08-19T02:54:07;13.10;99.90
1978;DHT22;989;53.016;8.346;2022-08-19T02:56:38;13.10;99.90
1978;DHT22;989;53.016;8.346;2022-08-19T02:59:06;13.00;99.90
1978;DHT22;989;53.016;8.346;2022-08-19T03:01:35;12.90;99.90
1978;DHT22;989;53.016;8.346;2022-08-19T03:04:05;12.90;99.90
1978;DHT22;989;53.016;8.346;2022-08-19T03:06:38;12.90;99.90
1978;DHT22;989;53.016;8.346;2022-08-19T03:09:04;12.90;99.90
1978;DHT22;989;53.016;8.346;2022-08-19T03:11:31;12.90;99.90
1978;DHT22;989;53.016;8.346;2022-08-19T03:13:58;12.90;99.90
1978;DHT22;989;53.016;8.346;2022-08-19T03:16:27;12.90;99.90
1978;DHT22;989;53.016;8.346;2022-08-19T03:18:56;12.80;99.90
1978;DHT22;989;53.016;8.346;2022-08-19T03:21:27;12.80;99.90
1978;DHT22;989;53.016;8.346;2022-08-19T03:23:56;12.90;99.90
1978;DHT22;989;53.016;8.346;2022-08-19T03:26:23;12.90;99.90
1978;DHT22;989;53.016;8.346;2022-08-19T03:28:48;12.90;99.90
1978;DHT22;989;53.016;8.346;2022-08-19T03:31:18;12.90;99.90
1978;DHT22;989;53.016;8.346;2022-08-19T03:33:47;13.00;99.90
1978;DHT22;989;53.016;8.346;2022-08-19T03:36:19;12.90;99.90
1978;DHT22;989;53.016;8.346;2022-08-19T03:38:50;12.90;99.90
1978;DHT22;989;53.016;8.346;2022-08-19T03:41:22;12.90;99.90
1978;DHT22;989;53.016;8.346;2022-08-19T03:43:51;13.00;99.90
1978;DHT22;989;53.016;8.346;2022-08-19T03:46:24;13.00;99.90
1978;DHT22;989;53.016;8.346;2022-08-19T03:48:53;13.00;99.90
1978;DHT22;989;53.016;8.346;2022-08-19T03:51:28;13.00;99.90
1978;DHT22;989;53.016;8.346;2022-08-19T03:53:56;12.90;99.90
1978;DHT22;989;53.016;8.346;2022-08-19T03:56:24;12.90;99.90
1978;DHT22;989;53.016;8.346;2022-08-19T03:58:54;13.00;99.90
1978;DHT22;989;53.016;8.346;2022-08-19T04:01:22;13.00;99.90
1978;DHT22;989;53.016;8.346;2022-08-19T04:03:52;13.00;99.90
1978;DHT22;989;53.016;8.346;2022-08-19T04:06:24;13.10;99.90
1978;DHT22;989;53.016;8.346;2022-08-19T04:09:02;13.10;99.90
1978;DHT22;989;53.016;8.346;2022-08-19T04:11:34;13.00;99.90
1978;DHT22;989;53.016;8.346;2022-08-19T04:14:14;13.00;99.90
1978;DHT22;989;53.016;8.346;2022-08-19T04:16:43;13.00;99.90
1978;DHT22;989;53.016;8.346;2022-08-19T04:19:12;13.00;99.90
1978;DHT22;989;53.016;8.346;2022-08-19T04:21:39;13.00;99.90
1978;DHT22;989;53.016;8.346;2022-08-19T04:24:06;13.00;99.90
1978;DHT22;989;53.016;8.346;2022-08-19T04:26:35;13.00;99.90
1978;DHT22;989;53.016;8.346;2022-08-19T04:29:06;12.90;99.90
1978;DHT22;989;53.016;8.346;2022-08-19T04:31:34;13.00;99.90
1978;DHT22;989;53.016;8.346;2022-08-19T04:34:03;13.00;99.90
1978;DHT22;989;53.016;8.346;2022-08-19T04:36:35;13.00;99.90
1978;DHT22;989;53.016;8.346;2022-08-19T04:39:09;13.10;99.90
1978;DHT22;989;53.016;8.346;2022-08-19T04:41:37;13.10;99.90
1978;DHT22;989;53.016;8.346;2022-08-19T04:44:21;13.10;99.90
1978;DHT22;989;53.016;8.346;2022-08-19T04:46:49;13.10;99.90
1978;DHT22;989;53.016;8.346;2022-08-19T04:49:18;13.10;99.90
1978;DHT22;989;53.016;8.346;2022-08-19T04:51:47;13.10;99.90
1978;DHT22;989;53.016;8.346;2022-08-19T04:54:14;13.10;99.90
1978;DHT22;989;53.016;8.346;2022-08-19T04:56:41;13.20;99.90
1978;DHT22;989;53.016;8.346;2022-08-19T04:59:07;13.30;99.90
1978;DHT22;989;53.016;8.346;2022-08-19T05:01:34;13.30;99.90
1978;DHT22;989;53.016;8.346;2022-08-19T05:04:03;13.40;99.90
1978;DHT22;989;53.016;8.346;2022-08-19T05:06:31;13.30;99.90
1978;DHT22;989;53.016;8.346;2022-08-19T05:09:07;13.20;99.90
1978;DHT22;989;53.016;8.346;2022-08-19T05:11:36;13.20;99.90
1978;DHT22;989;53.016;8.346;2022-08-19T05:14:06;13.30;99.90
1978;DHT22;989;53.016;8.346;2022-08-19T05:16:32;13.30;99.90
1978;DHT22;989;53.016;8.346;2022-08-19T05:18:58;13.40;99.90
1978;DHT22;989;53.016;8.346;2022-08-19T05:21:43;13.70;99.90
1978;DHT22;989;53.016;8.346;2022-08-19T05:24:28;13.70;99.90
1978;DHT22;989;53.016;8.346;2022-08-19T05:26:55;13.70;99.90
1978;DHT22;989;53.016;8.346;2022-08-19T05:29:24;13.80;99.90
1978;DHT22;989;53.016;8.346;2022-08-19T05:31:52;13.90;99.90
1978;DHT22;989;53.016;8.346;2022-08-19T05:34:20;13.70;99.90
1978;DHT22;989;53.016;8.346;2022-08-19T05:36:48;13.70;99.90
1978;DHT22;989;53.016;8.346;2022-08-19T05:39:19;13.70;99.90
1978;DHT22;989;53.016;8.346;2022-08-19T05:41:49;13.70;99.90
1978;DHT22;989;53.016;8.346;2022-08-19T05:44:18;13.70;99.90
1978;DHT22;989;53.016;8.346;2022-08-19T05:46:45;13.90;99.90
1978;DHT22;989;53.016;8.346;2022-08-19T05:49:13;13.80;99.90
1978;DHT22;989;53.016;8.346;2022-08-19T05:51:41;14.00;99.90
1978;DHT22;989;53.016;8.346;2022-08-19T05:54:07;14.20;99.90
1978;DHT22;989;53.016;8.346;2022-08-19T05:56:34;14.50;99.90
1978;DHT22;989;53.016;8.346;2022-08-19T05:59:05;14.60;99.90
1978;DHT22;989;53.016;8.346;2022-08-19T06:01:35;14.70;99.90
1978;DHT22;989;53.016;8.346;2022-08-19T06:04:03;14.60;99.90
1978;DHT22;989;53.016;8.346;2022-08-19T06:06:29;14.60;99.90
1978;DHT22;989;53.016;8.346;2022-08-19T06:08:55;14.80;99.90
1978;DHT22;989;53.016;8.346;2022-08-19T06:11:32;14.90;99.90
1978;DHT22;989;53.016;8.346;2022-08-19T06:14:01;15.10;99.90
1978;DHT22;989;53.016;8.346;2022-08-19T06:16:29;15.30;99.90
1978;DHT22;989;53.016;8.346;2022-08-19T06:19:00;15.10;99.90
1978;DHT22;989;53.016;8.346;2022-08-19T06:21:28;14.80;99.90
1978;DHT22;989;53.016;8.346;2022-08-19T06:23:56;14.80;99.90
1978;DHT22;989;53.016;8.346;2022-08-19T06:26:22;14.90;99.90
1978;DHT22;989;53.016;8.346;2022-08-19T06:28:49;15.00;99.90
1978;DHT22;989;53.016;8.346;2022-08-19T06:31:17;15.10;99.90
1978;DHT22;989;53.016;8.346;2022-08-19T06:33:46;15.20;99.90
1978;DHT22;989;53.016;8.346;2022-08-19T06:36:24;15.20;99.90
1978;DHT22;989;53.016;8.346;2022-08-19T06:38:55;15.30;99.90
1978;DHT22;989;53.016;8.346;2022-08-19T06:41:26;15.50;99.90
1978;DHT22;989;53.016;8.346;2022-08-19T06:43:54;15.60;99.90
1978;DHT22;989;53.016;8.346;2022-08-19T06:46:20;15.80;99.90
1978;DHT22;989;53.016;8.346;2022-08-19T06:48:47;15.90;99.90
1978;DHT22;989;53.016;8.346;2022-08-19T06:51:17;16.10;99.90
1978;DHT22;989;53.016;8.346;2022-08-19T06:53:47;16.10;99.90
1978;DHT22;989;53.016;8.346;2022-08-19T06:56:19;16.20;99.90
1978;DHT22;989;53.016;8.346;2022-08-19T06:58:47;16.60;99.90
1978;DHT22;989;53.016;8.346;2022-08-19T07:01:17;17.20;99.90
1978;DHT22;989;53.016;8.346;2022-08-19T07:03:42;17.40;93.70
1978;DHT22;989;53.016;8.346;2022-08-19T07:06:11;17.60;86.80
1978;DHT22;989;53.016;8.346;2022-08-19T07:08:40;18.20;82.60
1978;DHT22;989;53.016;8.346;2022-08-19T07:11:09;18.50;61.00
1978;DHT22;989;53.016;8.346;2022-08-19T07:13:36;18.50;56.80
1978;DHT22;989;53.016;8.346;2022-08-19T07:16:07;18.10;58.20
1978;DHT22;989;53.016;8.346;2022-08-19T07:18:35;18.10;58.90
1978;DHT22;989;53.016;8.346;2022-08-19T07:23:31;18.90;49.60
1978;DHT22;989;53.016;8.346;2022-08-19T07:25:57;19.10;32.80
1978;DHT22;989;53.016;8.346;2022-08-19T07:28:23;19.30;44.80
1978;DHT22;989;53.016;8.346;2022-08-19T07:30:49;20.30;22.00
1978;DHT22;989;53.016;8.346;2022-08-19T07:33:16;20.10;21.50
1978;DHT22;989;53.016;8.346;2022-08-19T07:35:43;19.60;25.30
1978;DHT22;989;53.016;8.346;2022-08-19T07:38:09;19.50;31.50
1978;DHT22;989;53.016;8.346;2022-08-19T07:40:35;19.50;25.40
1978;DHT22;989;53.016;8.346;2022-08-19T07:43:01;19.50;27.00
1978;DHT22;989;53.016;8.346;2022-08-19T07:45:27;19.20;31.10
1978;DHT22;989;53.016;8.346;2022-08-19T07:47:54;19.50;27.20
1978;DHT22;989;53.016;8.346;2022-08-19T07:50:20;19.80;22.20
1978;DHT22;989;53.016;8.346;2022-08-19T07:52:47;20.10;17.10
1978;DHT22;989;53.016;8.346;2022-08-19T07:55:16;20.00;15.10
1978;DHT22;989;53.016;8.346;2022-08-19T07:57:43;19.60;18.80
1978;DHT22;989;53.016;8.346;2022-08-19T08:00:09;20.20;15.50
1978;DHT22;989;53.016;8.346;2022-08-19T08:02:35;20.30;14.30
1978;DHT22;989;53.016;8.346;2022-08-19T08:05:01;20.50;8.40
1978;DHT22;989;53.016;8.346;2022-08-19T08:07:45;20.50;9.70
1978;DHT22;989;53.016;8.346;2022-08-19T08:10:30;20.90;4.20
1978;DHT22;989;53.016;8.346;2022-08-19T08:12:55;21.10;1.00
1978;DHT22;989;53.016;8.346;2022-08-19T08:15:21;21.00;1.90
1978;DHT22;989;53.016;8.346;2022-08-19T08:17:47;21.00;1.90
1978;DHT22;989;53.016;8.346;2022-08-19T08:20:14;21.20;1.00
1978;DHT22;989;53.016;8.346;2022-08-19T08:22:43;21.30;1.00
1978;DHT22;989;53.016;8.346;2022-08-19T08:25:29;21.30;1.00
1978;DHT22;989;53.016;8.346;2022-08-19T08:27:56;21.50;1.00
1978;DHT22;989;53.016;8.346;2022-08-19T08:30:25;21.10;1.00
1978;DHT22;989;53.016;8.346;2022-08-19T08:32:52;21.00;1.00
1978;DHT22;989;53.016;8.346;2022-08-19T08:35:22;21.30;1.00
1978;DHT22;989;53.016;8.346;2022-08-19T08:37:50;21.50;1.00
1978;DHT22;989;53.016;8.346;2022-08-19T08:40:26;21.70;1.00
1978;DHT22;989;53.016;8.346;2022-08-19T08:46:14;22.20;1.00
1978;DHT22;989;53.016;8.346;2022-08-19T08:48:54;22.00;1.00
1978;DHT22;989;53.016;8.346;2022-08-19T08:51:32;22.30;1.00
1978;DHT22;989;53.016;8.346;2022-08-19T08:54:00;23.20;1.00
1978;DHT22;989;53.016;8.346;2022-08-19T08:56:27;23.40;1.00
1978;DHT22;989;53.016;8.346;2022-08-19T08:59:20;24.40;1.00
1978;DHT22;989;53.016;8.346;2022-08-19T09:01:48;23.70;1.00
1978;DHT22;989;53.016;8.346;2022-08-19T09:04:14;23.30;1.00
1978;DHT22;989;53.016;8.346;2022-08-19T09:09:53;23.60;1.00
1978;DHT22;989;53.016;8.346;2022-08-19T09:15:17;24.60;1.00
1978;DHT22;989;53.016;8.346;2022-08-19T09:17:44;24.90;1.00
1978;DHT22;989;53.016;8.346;2022-08-19T09:22:37;23.80;1.00
1978;DHT22;989;53.016;8.346;2022-08-19T09:25:05;23.50;1.00
1978;DHT22;989;53.016;8.346;2022-08-19T09:27:33;23.60;1.00
1978;DHT22;989;53.016;8.346;2022-08-19T09:30:04;23.80;1.00
1978;DHT22;989;53.016;8.346;2022-08-19T09:32:31;23.90;1.00
1978;DHT22;989;53.016;8.346;2022-08-19T09:34:56;24.00;1.00
1978;DHT22;989;53.016;8.346;2022-08-19T09:37:24;24.10;1.00
1978;DHT22;989;53.016;8.346;2022-08-19T09:39:50;23.80;1.00
1978;DHT22;989;53.016;8.346;2022-08-19T09:42:16;24.10;1.00
1978;DHT22;989;53.016;8.346;2022-08-19T09:44:43;24.30;1.00
1978;DHT22;989;53.016;8.346;2022-08-19T09:47:10;24.00;1.00
1978;DHT22;989;53.016;8.346;2022-08-19T09:49:37;24.60;1.00
1978;DHT22;989;53.016;8.346;2022-08-19T09:52:05;24.60;1.00
1978;DHT22;989;53.016;8.346;2022-08-19T09:54:33;24.70;1.00
1978;DHT22;989;53.016;8.346;2022-08-19T09:56:59;24.50;1.00
1978;DHT22;989;53.016;8.346;2022-08-19T09:59:28;24.70;1.00
1978;DHT22;989;53.016;8.346;2022-08-19T10:01:54;25.20;1.00
1978;DHT22;989;53.016;8.346;2022-08-19T10:04:20;25.30;1.00
1978;DHT22;989;53.016;8.346;2022-08-19T10:06:47;25.10;1.00
1978;DHT22;989;53.016;8.346;2022-08-19T10:09:16;25.40;1.00
1978;DHT22;989;53.016;8.346;2022-08-19T10:11:44;25.80;1.00
1978;DHT22;989;53.016;8.346;2022-08-19T10:14:15;25.30;1.00
1978;DHT22;989;53.016;8.346;2022-08-19T10:16:42;25.10;1.00
1978;DHT22;989;53.016;8.346;2022-08-19T10:19:08;25.30;1.00
1978;DHT22;989;53.016;8.346;2022-08-19T10:21:35;25.30;1.00
1978;DHT22;989;53.016;8.346;2022-08-19T10:24:04;24.80;1.00
1978;DHT22;989;53.016;8.346;2022-08-19T10:26:34;25.20;1.00
1978;DHT22;989;53.016;8.346;2022-08-19T10:29:03;24.80;1.00
1978;DHT22;989;53.016;8.346;2022-08-19T10:31:31;24.90;1.00
1978;DHT22;989;53.016;8.346;2022-08-19T10:33:58;25.10;1.00
1978;DHT22;989;53.016;8.346;2022-08-19T10:36:29;24.90;1.00
1978;DHT22;989;53.016;8.346;2022-08-19T10:38:58;24.80;1.00
1978;DHT22;989;53.016;8.346;2022-08-19T10:41:32;24.50;1.00
1978;DHT22;989;53.016;8.346;2022-08-19T10:44:03;24.90;1.00
1978;DHT22;989;53.016;8.346;2022-08-19T10:46:33;25.50;1.00
1978;DHT22;989;53.016;8.346;2022-08-19T10:49:02;25.90;1.00
1978;DHT22;989;53.016;8.346;2022-08-19T10:51:30;26.20;1.00
1978;DHT22;989;53.016;8.346;2022-08-19T10:54:15;25.60;1.00
1978;DHT22;989;53.016;8.346;2022-08-19T10:56:41;24.90;1.00
1978;DHT22;989;53.016;8.346;2022-08-19T11:01:45;25.00;1.00
1978;DHT22;989;53.016;8.346;2022-08-19T11:04:12;25.40;1.00
1978;DHT22;989;53.016;8.346;2022-08-19T11:06:42;25.90;1.00
1978;DHT22;989;53.016;8.346;2022-08-19T11:09:17;26.20;1.00
1978;DHT22;989;53.016;8.346;2022-08-19T11:11:43;26.40;1.00
1978;DHT22;989;53.016;8.346;2022-08-19T11:14:12;26.70;1.00
1978;DHT22;989;53.016;8.346;2022-08-19T11:16:40;26.90;1.00
1978;DHT22;989;53.016;8.346;2022-08-19T11:19:09;27.10;1.00
1978;DHT22;989;53.016;8.346;2022-08-19T11:21:42;27.30;1.00
1978;DHT22;989;53.016;8.346;2022-08-19T11:24:12;27.10;1.00
1978;DHT22;989;53.016;8.346;2022-08-19T11:26:43;27.20;1.00
1978;DHT22;989;53.016;8.346;2022-08-19T11:29:11;27.20;1.00
1978;DHT22;989;53.016;8.346;2022-08-19T11:31:40;27.30;1.00
1978;DHT22;989;53.016;8.346;2022-08-19T11:34:10;27.90;1.00
1978;DHT22;989;53.016;8.346;2022-08-19T11:36:40;28.00;1.00
1978;DHT22;989;53.016;8.346;2022-08-19T11:39:09;28.30;1.00
1978;DHT22;989;53.016;8.346;2022-08-19T11:41:36;29.10;1.00
1978;DHT22;989;53.016;8.346;2022-08-19T11:44:02;29.00;1.00
1978;DHT22;989;53.016;8.346;2022-08-19T11:46:30;28.10;1.00
1978;DHT22;989;53.016;8.346;2022-08-19T11:48:59;28.60;1.00
1978;DHT22;989;53.016;8.346;2022-08-19T11:51:27;28.80;1.00
1978;DHT22;989;53.016;8.346;2022-08-19T11:53:54;29.20;1.00
1978;DHT22;989;53.016;8.346;2022-08-19T11:56:22;29.80;1.00
1978;DHT22;989;53.016;8.346;2022-08-19T11:58:48;29.50;1.00
1978;DHT22;989;53.016;8.346;2022-08-19T12:01:16;28.80;1.00
1978;DHT22;989;53.016;8.346;2022-08-19T12:03:44;28.40;1.00
1978;DHT22;989;53.016;8.346;2022-08-19T12:06:13;28.30;1.00
1978;DHT22;989;53.016;8.346;2022-08-19T12:08:41;28.30;1.00
1978;DHT22;989;53.016;8.346;2022-08-19T12:11:09;28.90;1.00
1978;DHT22;989;53.016;8.346;2022-08-19T12:13:36;28.70;1.00
1978;DHT22;989;53.016;8.346;2022-08-19T12:16:09;29.30;1.00
1978;DHT22;989;53.016;8.346;2022-08-19T12:18:38;30.00;1.00
1978;DHT22;989;53.016;8.346;2022-08-19T12:21:07;30.20;1.00
1978;DHT22;989;53.016;8.346;2022-08-19T12:23:33;30.40;1.00
1978;DHT22;989;53.016;8.346;2022-08-19T12:25:59;30.50;1.00
1978;DHT22;989;53.016;8.346;2022-08-19T12:28:25;30.60;1.00
1978;DHT22;989;53.016;8.346;2022-08-19T12:30:51;29.60;1.00
1978;DHT22;989;53.016;8.346;2022-08-19T12:33:18;28.10;1.00
1978;DHT22;989;53.016;8.346;2022-08-19T12:35:45;28.60;1.00
1978;DHT22;989;53.016;8.346;2022-08-19T12:38:13;29.00;1.00
1978;DHT22;989;53.016;8.346;2022-08-19T12:40:40;29.60;1.00
1978;DHT22;989;53.016;8.346;2022-08-19T12:43:06;31.10;1.00
1978;DHT22;989;53.016;8.346;2022-08-19T12:45:33;32.00;1.00
1978;DHT22;989;53.016;8.346;2022-08-19T12:47:59;32.30;1.00
1978;DHT22;989;53.016;8.346;2022-08-19T12:50:25;32.20;1.00
1978;DHT22;989;53.016;8.346;2022-08-19T12:52:51;32.30;1.00
1978;DHT22;989;53.016;8.346;2022-08-19T12:55:17;31.70;1.00
1978;DHT22;989;53.016;8.346;2022-08-19T12:57:44;31.00;1.00
1978;DHT22;989;53.016;8.346;2022-08-19T13:00:14;31.30;1.00
1978;DHT22;989;53.016;8.346;2022-08-19T13:02:43;31.00;1.00
1978;DHT22;989;53.016;8.346;2022-08-19T13:05:13;30.50;1.00
1978;DHT22;989;53.016;8.346;2022-08-19T13:07:41;29.30;1.00
1978;DHT22;989;53.016;8.346;2022-08-19T13:10:11;29.40;1.00
1978;DHT22;989;53.016;8.346;2022-08-19T13:12:41;28.90;1.00
1978;DHT22;989;53.016;8.346;2022-08-19T13:15:08;29.10;1.00
1978;DHT22;989;53.016;8.346;2022-08-19T13:17:35;29.10;1.00
1978;DHT22;989;53.016;8.346;2022-08-19T13:20:02;28.70;1.00
1978;DHT22;989;53.016;8.346;2022-08-19T13:22:29;28.20;1.00
1978;DHT22;989;53.016;8.346;2022-08-19T13:24:54;29.20;1.00
1978;DHT22;989;53.016;8.346;2022-08-19T13:27:20;29.00;1.00
1978;DHT22;989;53.016;8.346;2022-08-19T13:29:46;28.50;1.00
1978;DHT22;989;53.016;8.346;2022-08-19T13:32:30;27.90;1.00
1978;DHT22;989;53.016;8.346;2022-08-19T13:35:15;29.00;1.00
1978;DHT22;989;53.016;8.346;2022-08-19T13:37:41;28.30;1.00
1978;DHT22;989;53.016;8.346;2022-08-19T13:40:16;28.10;1.00
1978;DHT22;989;53.016;8.346;2022-08-19T13:42:49;28.80;1.00
1978;DHT22;989;53.016;8.346;2022-08-19T13:45:20;29.80;1.00
1978;DHT22;989;53.016;8.346;2022-08-19T13:47:48;31.20;1.00
1978;DHT22;989;53.016;8.346;2022-08-19T13:50:20;30.90;1.00
1978;DHT22;989;53.016;8.346;2022-08-19T13:52:47;29.80;1.00
1978;DHT22;989;53.016;8.346;2022-08-19T13:55:14;29.20;1.00
1978;DHT22;989;53.016;8.346;2022-08-19T13:57:41;30.00;1.00
1978;DHT22;989;53.016;8.346;2022-08-19T14:00:13;30.00;1.00
1978;DHT22;989;53.016;8.346;2022-08-19T14:03:09;30.20;1.00
1978;DHT22;989;53.016;8.346;2022-08-19T14:05:36;30.50;1.00
1978;DHT22;989;53.016;8.346;2022-08-19T14:08:02;29.80;1.00
1978;DHT22;989;53.016;8.346;2022-08-19T14:10:28;29.60;1.00
1978;DHT22;989;53.016;8.346;2022-08-19T14:12:58;31.10;1.00
1978;DHT22;989;53.016;8.346;2022-08-19T14:15:25;31.40;1.00
1978;DHT22;989;53.016;8.346;2022-08-19T14:17:52;31.10;1.00
1978;DHT22;989;53.016;8.346;2022-08-19T14:20:19;30.60;1.00
1978;DHT22;989;53.016;8.346;2022-08-19T14:22:46;30.90;1.00
1978;DHT22;989;53.016;8.346;2022-08-19T14:25:16;30.70;1.00
1978;DHT22;989;53.016;8.346;2022-08-19T14:27:44;30.70;1.00
1978;DHT22;989;53.016;8.346;2022-08-19T14:30:13;29.00;1.00
1978;DHT22;989;53.016;8.346;2022-08-19T14:32:41;29.20;1.00
1978;DHT22;989;53.016;8.346;2022-08-19T14:35:10;30.10;1.00
1978;DHT22;989;53.016;8.346;2022-08-19T14:37:37;30.40;1.00
1978;DHT22;989;53.016;8.346;2022-08-19T14:40:04;30.90;1.00
1978;DHT22;989;53.016;8.346;2022-08-19T14:42:30;32.00;1.00
1978;DHT22;989;53.016;8.346;2022-08-19T14:44:59;31.80;1.00
1978;DHT22;989;53.016;8.346;2022-08-19T14:47:26;31.90;1.00
1978;DHT22;989;53.016;8.346;2022-08-19T14:49:52;31.70;1.00
1978;DHT22;989;53.016;8.346;2022-08-19T14:52:19;32.60;1.00
1978;DHT22;989;53.016;8.346;2022-08-19T14:54:45;33.80;1.00
1978;DHT22;989;53.016;8.346;2022-08-19T14:57:14;33.30;1.00
1978;DHT22;989;53.016;8.346;2022-08-19T14:59:42;33.60;1.00
1978;DHT22;989;53.016;8.346;2022-08-19T15:02:08;33.50;1.00
1978;DHT22;989;53.016;8.346;2022-08-19T15:04:34;33.30;1.00
1978;DHT22;989;53.016;8.346;2022-08-19T15:07:00;33.60;1.00
1978;DHT22;989;53.016;8.346;2022-08-19T15:09:25;34.10;1.00
1978;DHT22;989;53.016;8.346;2022-08-19T15:11:51;33.80;1.00
1978;DHT22;989;53.016;8.346;2022-08-19T15:14:17;32.90;1.00
1978;DHT22;989;53.016;8.346;2022-08-19T15:16:43;33.50;1.00
1978;DHT22;989;53.016;8.346;2022-08-19T15:19:09;34.20;1.00
1978;DHT22;989;53.016;8.346;2022-08-19T15:21:34;34.30;1.00
1978;DHT22;989;53.016;8.346;2022-08-19T15:24:02;34.70;1.00
1978;DHT22;989;53.016;8.346;2022-08-19T15:26:28;35.10;1.00
1978;DHT22;989;53.016;8.346;2022-08-19T15:29:01;34.40;1.00
1978;DHT22;989;53.016;8.346;2022-08-19T15:31:27;34.60;1.00
1978;DHT22;989;53.016;8.346;2022-08-19T15:33:54;34.90;1.00
1978;DHT22;989;53.016;8.346;2022-08-19T15:36:23;34.00;1.00
1978;DHT22;989;53.016;8.346;2022-08-19T15:38:50;34.00;1.00
1978;DHT22;989;53.016;8.346;2022-08-19T15:41:23;34.60;1.00
1978;DHT22;989;53.016;8.346;2022-08-19T15:43:56;35.50;1.00
1978;DHT22;989;53.016;8.346;2022-08-19T15:46:30;35.10;1.00
1978;DHT22;989;53.016;8.346;2022-08-19T15:48:57;35.10;1.00
1978;DHT22;989;53.016;8.346;2022-08-19T15:51:25;35.00;1.00
1978;DHT22;989;53.016;8.346;2022-08-19T15:53:51;35.70;1.00
1978;DHT22;989;53.016;8.346;2022-08-19T15:56:17;36.20;1.00
1978;DHT22;989;53.016;8.346;2022-08-19T15:58:43;35.80;1.00
1978;DHT22;989;53.016;8.346;2022-08-19T16:01:28;35.50;1.00
1978;DHT22;989;53.016;8.346;2022-08-19T16:03:55;33.70;1.00
1978;DHT22;989;53.016;8.346;2022-08-19T16:06:44;33.50;1.00
1978;DHT22;989;53.016;8.346;2022-08-19T16:09:15;34.20;1.00
1978;DHT22;989;53.016;8.346;2022-08-19T16:11:43;34.00;1.00
1978;DHT22;989;53.016;8.346;2022-08-19T16:14:09;31.70;1.00
1978;DHT22;989;53.016;8.346;2022-08-19T16:16:36;30.10;1.00
1978;DHT22;989;53.016;8.346;2022-08-19T16:19:05;29.40;1.00
1978;DHT22;989;53.016;8.346;2022-08-19T16:21:33;29.10;1.00
1978;DHT22;989;53.016;8.346;2022-08-19T16:24:02;27.90;1.00
1978;DHT22;989;53.016;8.346;2022-08-19T16:26:31;27.90;1.00
1978;DHT22;989;53.016;8.346;2022-08-19T16:28:58;28.10;1.00
1978;DHT22;989;53.016;8.346;2022-08-19T16:31:25;28.50;1.00
1978;DHT22;989;53.016;8.346;2022-08-19T16:33:51;30.00;1.00
1978;DHT22;989;53.016;8.346;2022-08-19T16:36:17;30.90;1.00
1978;DHT22;989;53.016;8.346;2022-08-19T16:38:43;31.40;1.00
1978;DHT22;989;53.016;8.346;2022-08-19T16:41:12;31.00;1.00
1978;DHT22;989;53.016;8.346;2022-08-19T16:43:42;30.50;1.00
1978;DHT22;989;53.016;8.346;2022-08-19T16:46:08;30.40;1.00
1978;DHT22;989;53.016;8.346;2022-08-19T16:48:36;31.10;1.00
1978;DHT22;989;53.016;8.346;2022-08-19T16:51:09;30.40;1.00
1978;DHT22;989;53.016;8.346;2022-08-19T16:53:36;30.50;1.00
1978;DHT22;989;53.016;8.346;2022-08-19T16:56:03;31.10;1.00